CYMX/YMX METAR and TAF weather

Enter ICAO airport designator
Station Type Date Time Source
CYMX METAR 2022/06/30 14:00 UTC NOAA

CYMX 301400Z VRB02KT 30SM SCT018 BKN240 19/15 A3022 RMK CU3CI3 SLP237 DENSITY ALT 500FT


Station Type Date Time Source
CYMX Decoded METAR 2022/06/30 14:00 UTC NOAA

Montreal / Mirabel, Canada (CYMX) 45-41N 074-02W
Jun 30, 2022 - 10:00 AM EDT / 2022.06.30 1400 UTC
Wind: Variable at 2 MPH (2 KT):0
Visibility: 30 mile(s):0
Sky conditions: mostly cloudy
Temperature: 66 F (19 C)
Dew Point: 59 F (15 C)
Relative Humidity: 77%
Pressure (altimeter): 30.22 in. Hg (1023 hPa)
ob: CYMX 301400Z VRB02KT 30SM SCT018 BKN240 19/15 A3022 RMK CU3CI3 SLP237 DENSITY ALT 500FT
cycle: 14

Station Type Date Time Source
CYMX TAF 2022/06/30 12:48 UTC NOAA

TAF TAF CYMX 301141Z 3012/0112 VRB03KT P6SM SKC
FM302100 22006KT P6SM BKN170
RMK NXT FCST BY 301800Z

Example: see airport list